Time,TemperatureF,DewpointF,PressureIn,WindDirection,WindDirectionDegrees,WindSpeedMPH,WindSpeedGustMPH,Humidity,HourlyPrecipIn,Conditions,Clouds,dailyrainin,SoftwareType,DateUTC
2013-03-14 00:00:00,26.6,20.7,29.99,WNW,302,5.0,9.0,78,0.00,,---,0.00,VWS V14.00,2013-03-14 04:00:00,
2013-03-14 00:01:00,26.6,20.7,29.99,WNW,294,4.0,9.0,78,0.00,,---,0.00,VWS V14.00,2013-03-14 04:01:00,
2013-03-14 00:06:00,26.7,19.5,29.99,NW,306,11.0,13.0,74,0.00,,---,0.00,VWS V14.00,2013-03-14 04:06:00,
2013-03-14 00:11:00,27.1,18.6,29.99,NW,325,9.0,20.0,70,0.00,,---,0.00,VWS V14.00,2013-03-14 04:11:00,
2013-03-14 00:16:00,27.4,18.2,29.99,WNW,286,7.0,17.0,68,0.00,,---,0.00,VWS V14.00,2013-03-14 04:16:00,
2013-03-14 00:21:00,27.5,18.0,29.99,NNW,333,7.0,17.0,67,0.00,,---,0.00,VWS V14.00,2013-03-14 04:21:00,
2013-03-14 00:26:00,27.6,18.1,29.99,NW,324,5.0,17.0,67,0.00,,---,0.00,VWS V14.00,2013-03-14 04:26:00,
2013-03-14 00:31:00,27.5,18.0,29.99,WNW,293,6.0,12.0,67,0.00,,---,0.00,VWS V14.00,2013-03-14 04:31:00,
2013-03-14 00:36:00,27.5,17.6,29.99,NNW,333,6.0,12.0,66,0.00,,---,0.00,VWS V14.00,2013-03-14 04:36:00,
2013-03-14 00:41:00,27.6,17.7,29.99,WNW,300,9.0,15.0,66,0.00,,---,0.00,VWS V14.00,2013-03-14 04:41:00,
2013-03-14 00:46:00,27.6,17.7,29.99,NW,325,9.0,13.0,66,0.00,,---,0.00,VWS V14.00,2013-03-14 04:46:00,
2013-03-14 00:51:00,27.5,17.6,29.99,WNW,297,4.0,13.0,66,0.00,,---,0.00,VWS V14.00,2013-03-14 04:51:00,
2013-03-14 00:57:00,27.5,17.6,29.99,WNW,301,6.0,14.0,66,0.00,,---,0.00,VWS V14.00,2013-03-14 04:57:00,
2013-03-14 01:02:00,27.5,17.6,29.99,NNW,331,10.0,18.0,66,0.00,,---,0.00,VWS V14.00,2013-03-14 05:02:00,
2013-03-14 01:07:00,27.5,17.6,29.99,WNW,299,10.0,18.0,66,0.00,,---,0.00,VWS V14.00,2013-03-14 05:07:00,
2013-03-14 01:12:00,27.4,17.5,29.99,NW,304,9.0,18.0,66,0.00,,---,0.00,VWS V14.00,2013-03-14 05:12:00,
2013-03-14 01:17:00,27.5,17.6,29.99,WNW,292,11.0,12.0,66,0.00,,---,0.00,VWS V14.00,2013-03-14 05:17:00,
2013-03-14 01:22:00,27.4,17.5,29.99,NW,323,8.0,12.0,66,0.00,,---,0.00,VWS V14.00,2013-03-14 05:22:00,
2013-03-14 01:27:00,27.3,17.5,29.99,WNW,298,6.0,12.0,66,0.00,,---,0.00,VWS V14.00,2013-03-14 05:27:00,
2013-03-14 01:32:00,27.3,17.5,30.00,NW,313,3.0,8.0,66,0.00,,---,0.00,VWS V14.00,2013-03-14 05:32:00,
2013-03-14 01:37:00,27.3,17.5,30.00,WNW,300,5.0,13.0,66,0.00,,---,0.00,VWS V14.00,2013-03-14 05:37:00,
2013-03-14 01:42:00,27.2,17.0,30.00,WNW,288,8.0,14.0,65,0.00,,---,0.00,VWS V14.00,2013-03-14 05:42:00,
2013-03-14 01:47:00,27.2,16.6,30.00,NW,311,11.0,19.0,64,0.00,,---,0.00,VWS V14.00,2013-03-14 05:47:00,
2013-03-14 01:52:00,27.2,16.6,30.00,NW,325,11.0,19.0,64,0.00,,---,0.00,VWS V14.00,2013-03-14 05:52:00,
2013-03-14 01:57:00,27.2,16.6,30.00,NNW,343,5.0,19.0,64,0.00,,---,0.00,VWS V14.00,2013-03-14 05:57:00,
2013-03-14 02:02:00,27.1,16.9,30.00,NW,311,9.0,13.0,65,0.00,,---,0.00,VWS V14.00,2013-03-14 06:02:00,
2013-03-14 02:07:00,27.0,16.8,30.00,NNW,344,11.0,21.0,65,0.00,,---,0.00,VWS V14.00,2013-03-14 06:07:00,
2013-03-14 02:12:00,27.0,16.8,30.00,NW,306,5.0,21.0,65,0.00,,---,0.00,VWS V14.00,2013-03-14 06:12:00,
2013-03-14 02:17:00,26.9,16.4,30.01,North,355,5.0,14.0,64,0.00,,---,0.00,VWS V14.00,2013-03-14 06:17:00,
2013-03-14 02:22:00,26.7,16.2,30.01,North,355,15.0,20.0,64,0.00,,---,0.00,VWS V14.00,2013-03-14 06:22:00,
2013-03-14 02:28:00,26.5,16.0,30.01,NW,313,5.0,20.0,64,0.00,,---,0.00,VWS V14.00,2013-03-14 06:28:00,
2013-03-14 02:33:00,26.3,15.8,30.01,NW,312,7.0,17.0,64,0.00,,---,0.00,VWS V14.00,2013-03-14 06:33:00,
2013-03-14 02:38:00,26.0,15.5,30.01,WNW,294,8.0,17.0,64,0.00,,---,0.00,VWS V14.00,2013-03-14 06:38:00,
2013-03-14 02:43:00,25.9,15.4,30.01,NW,312,12.0,17.0,64,0.00,,---,0.00,VWS V14.00,2013-03-14 06:43:00,
2013-03-14 02:48:00,25.7,15.2,30.01,NNW,336,6.0,14.0,64,0.00,,---,0.00,VWS V14.00,2013-03-14 06:48:00,
2013-03-14 02:53:00,25.6,15.1,30.01,NW,325,10.0,17.0,64,0.00,,---,0.00,VWS V14.00,2013-03-14 06:53:00,
2013-03-14 02:58:00,25.5,15.0,30.02,WNW,290,13.0,19.0,64,0.00,,---,0.00,VWS V14.00,2013-03-14 06:58:00,
2013-03-14 03:03:00,25.4,15.3,30.02,NW,309,13.0,19.0,65,0.00,,---,0.00,VWS V14.00,2013-03-14 07:03:00,
2013-03-14 03:08:00,25.2,15.1,30.02,NW,315,5.0,19.0,65,0.00,,---,0.00,VWS V14.00,2013-03-14 07:08:00,
2013-03-14 03:13:00,25.1,15.4,30.02,WNW,288,8.0,19.0,66,0.00,,---,0.00,VWS V14.00,2013-03-14 07:13:00,
2013-03-14 03:18:00,25.1,15.7,30.02,WNW,293,9.0,14.0,67,0.00,,---,0.00,VWS V14.00,2013-03-14 07:18:00,
2013-03-14 03:23:00,25.1,15.7,30.02,WNW,288,6.0,20.0,67,0.00,,---,0.00,VWS V14.00,2013-03-14 07:23:00,
2013-03-14 07:00:00,23.9,15.2,30.06,WNW,292,7.0,14.0,69,0.00,,---,0.00,VWS V14.00,2013-03-14 11:00:00,
2013-03-14 07:18:00,23.8,14.8,30.06,NW,322,9.0,10.0,68,0.00,,---,0.00,VWS V14.00,2013-03-14 11:18:00,
2013-03-14 07:23:00,23.8,14.8,30.06,NW,315,10.0,12.0,68,0.00,,---,0.00,VWS V14.00,2013-03-14 11:23:00,
2013-03-14 07:28:00,23.8,14.8,30.06,NW,325,7.0,12.0,68,0.00,,---,0.00,VWS V14.00,2013-03-14 11:28:00,
2013-03-14 07:33:00,23.8,14.8,30.06,WNW,302,8.0,14.0,68,0.00,,---,0.00,VWS V14.00,2013-03-14 11:33:00,
2013-03-14 07:38:00,23.8,14.8,30.06,NW,317,4.0,14.0,68,0.00,,---,0.00,VWS V14.00,2013-03-14 11:38:00,
2013-03-14 07:43:00,23.8,14.8,30.06,West,261,2.0,14.0,68,0.00,,---,0.00,VWS V14.00,2013-03-14 11:43:00,
2013-03-14 07:48:00,23.7,14.7,30.07,WNW,294,8.0,11.0,68,0.00,,---,0.00,VWS V14.00,2013-03-14 11:48:00,
2013-03-14 07:53:00,23.7,14.7,30.07,WNW,282,4.0,12.0,68,0.00,,---,0.00,VWS V14.00,2013-03-14 11:53:00,
2013-03-14 07:58:00,23.8,14.8,30.07,NW,321,4.0,12.0,68,0.00,,---,0.00,VWS V14.00,2013-03-14 11:58:00,
2013-03-14 08:03:00,23.9,15.2,30.07,NW,308,6.0,13.0,69,0.00,,---,0.00,VWS V14.00,2013-03-14 12:03:00,
2013-03-14 08:08:00,23.9,15.6,30.07,WNW,285,5.0,13.0,70,0.00,,---,0.00,VWS V14.00,2013-03-14 12:08:00,
2013-03-14 08:13:00,23.9,15.9,30.07,WNW,286,7.0,13.0,71,0.00,,---,0.00,VWS V14.00,2013-03-14 12:13:00,
2013-03-14 08:18:00,23.9,16.2,30.07,WNW,303,4.0,8.0,72,0.00,,---,0.00,VWS V14.00,2013-03-14 12:18:00,
2013-03-14 08:23:00,24.0,16.3,30.07,WNW,283,10.0,10.0,72,0.00,,---,0.00,VWS V14.00,2013-03-14 12:23:00,
2013-03-14 08:28:00,24.0,16.6,30.08,West,272,3.0,10.0,73,0.00,,---,0.00,VWS V14.00,2013-03-14 12:28:00,
2013-03-14 08:33:00,24.1,17.0,30.08,NW,317,8.0,8.0,74,0.00,,---,0.00,VWS V14.00,2013-03-14 12:33:00,
2013-03-14 08:38:00,24.1,16.7,30.08,West,279,7.0,11.0,73,0.00,,---,0.00,VWS V14.00,2013-03-14 12:38:00,
2013-03-14 08:43:00,24.1,17.0,30.08,WNW,284,5.0,13.0,74,0.00,,---,0.00,VWS V14.00,2013-03-14 12:43:00,
2013-03-14 08:48:00,24.1,17.0,30.08,WNW,300,4.0,13.0,74,0.00,,---,0.00,VWS V14.00,2013-03-14 12:48:00,
2013-03-14 08:53:00,24.1,17.0,30.08,West,277,5.0,13.0,74,0.00,,---,0.00,VWS V14.00,2013-03-14 12:53:00,
2013-03-14 08:58:00,24.1,17.0,30.08,WNW,292,6.0,13.0,74,0.00,,---,0.00,VWS V14.00,2013-03-14 12:58:00,
2013-03-14 09:03:00,24.2,16.8,30.09,WNW,300,4.0,13.0,73,0.00,,---,0.00,VWS V14.00,2013-03-14 13:03:00,
2013-03-14 09:08:00,24.3,16.9,30.09,West,281,13.0,13.0,73,0.00,,---,0.00,VWS V14.00,2013-03-14 13:08:00,
2013-03-14 09:13:00,24.2,17.1,30.09,WNW,293,10.0,13.0,74,0.00,,---,0.00,VWS V14.00,2013-03-14 13:13:00,
2013-03-14 09:18:00,24.3,16.6,30.09,WNW,282,8.0,13.0,72,0.00,,---,0.00,VWS V14.00,2013-03-14 13:18:00,
2013-03-14 09:23:00,24.4,16.7,30.09,WNW,303,4.0,13.0,72,0.00,,---,0.00,VWS V14.00,2013-03-14 13:23:00,
2013-03-14 09:28:00,24.4,16.0,30.09,NW,313,8.0,18.0,70,0.00,,---,0.00,VWS V14.00,2013-03-14 13:28:00,
2013-03-14 09:33:00,24.6,16.2,30.09,NNW,336,15.0,16.0,70,0.00,,---,0.00,VWS V14.00,2013-03-14 13:33:00,
2013-03-14 09:38:00,24.5,16.1,30.10,WNW,294,7.0,16.0,70,0.00,,---,0.00,VWS V14.00,2013-03-14 13:38:00,
2013-03-14 09:44:00,24.5,15.5,30.09,WNW,300,9.0,16.0,68,0.00,,---,0.00,VWS V14.00,2013-03-14 13:44:00,
2013-03-14 09:48:00,24.6,15.6,30.09,NNW,337,8.0,16.0,68,0.00,,---,0.00,VWS V14.00,2013-03-14 13:48:00,
2013-03-14 09:54:00,24.9,15.5,30.09,WNW,295,14.0,19.0,67,0.00,,---,0.00,VWS V14.00,2013-03-14 13:54:00,
2013-03-14 09:59:00,25.3,15.9,30.09,NW,319,6.0,19.0,67,0.00,,---,0.00,VWS V14.00,2013-03-14 13:59:00,
2013-03-14 10:04:00,25.7,16.3,30.10,WNW,290,4.0,12.0,67,0.00,,---,0.00,VWS V14.00,2013-03-14 14:04:00,
2013-03-14 10:09:00,25.4,15.6,30.10,WNW,298,7.0,14.0,66,0.00,,---,0.00,VWS V14.00,2013-03-14 14:09:00,
2013-03-14 10:14:00,25.1,15.4,30.10,WNW,302,6.0,15.0,66,0.00,,---,0.00,VWS V14.00,2013-03-14 14:14:00,
2013-03-14 10:19:00,25.2,15.4,30.10,WNW,284,6.0,19.0,66,0.00,,---,0.00,VWS V14.00,2013-03-14 14:19:00,
2013-03-14 10:24:00,25.2,15.4,30.10,WNW,300,12.0,19.0,66,0.00,,---,0.00,VWS V14.00,2013-03-14 14:24:00,
2013-03-14 10:29:00,25.2,15.4,30.10,West,273,6.0,19.0,66,0.00,,---,0.00,VWS V14.00,2013-03-14 14:29:00,
2013-03-14 10:34:00,25.2,15.4,30.10,NW,306,10.0,15.0,66,0.00,,---,0.00,VWS V14.00,2013-03-14 14:34:00,
2013-03-14 10:39:00,25.3,15.2,30.10,WNW,297,8.0,15.0,65,0.00,,---,0.00,VWS V14.00,2013-03-14 14:39:00,
2013-03-14 10:44:00,25.6,15.1,30.10,NW,311,10.0,15.0,64,0.00,,---,0.00,VWS V14.00,2013-03-14 14:44:00,
2013-03-14 10:49:00,26.0,15.5,30.10,NW,311,7.0,18.0,64,0.00,,---,0.00,VWS V14.00,2013-03-14 14:49:00,
2013-03-14 10:54:00,25.7,15.6,30.10,NNW,341,6.0,18.0,65,0.00,,---,0.00,VWS V14.00,2013-03-14 14:54:00,
2013-03-14 10:59:00,25.7,15.6,30.10,NNW,332,4.0,18.0,65,0.00,,---,0.00,VWS V14.00,2013-03-14 14:59:00,
2013-03-14 11:04:00,25.6,15.1,30.10,WNW,298,12.0,14.0,64,0.00,,---,0.00,VWS V14.00,2013-03-14 15:04:00,
2013-03-14 11:09:00,26.1,15.2,30.10,NW,308,9.0,14.0,63,0.00,,---,0.00,VWS V14.00,2013-03-14 15:09:00,
2013-03-14 11:14:00,26.3,15.4,30.10,NNW,338,15.0,15.0,63,0.00,,---,0.00,VWS V14.00,2013-03-14 15:14:00,
2013-03-14 11:19:00,26.0,15.1,30.10,NNW,328,5.0,12.0,63,0.00,,---,0.00,VWS V14.00,2013-03-14 15:19:00,
2013-03-14 11:24:00,25.8,15.7,30.10,NNW,348,7.0,16.0,65,0.00,,---,0.00,VWS V14.00,2013-03-14 15:24:00,
2013-03-14 11:29:00,25.8,16.0,30.10,WNW,289,8.0,16.0,66,0.00,,---,0.00,VWS V14.00,2013-03-14 15:29:00,
2013-03-14 11:34:00,25.9,15.8,30.11,West,281,3.0,10.0,65,0.00,,---,0.00,VWS V14.00,2013-03-14 15:34:00,
2013-03-14 11:39:00,26.2,16.4,30.11,NW,319,5.0,12.0,66,0.00,,---,0.00,VWS V14.00,2013-03-14 15:39:00,
2013-03-14 11:44:00,26.6,16.1,30.11,West,261,6.0,12.0,64,0.00,,---,0.00,VWS V14.00,2013-03-14 15:44:00,
2013-03-14 11:49:00,26.5,16.0,30.11,NW,313,9.0,14.0,64,0.00,,---,0.00,VWS V14.00,2013-03-14 15:49:00,
2013-03-14 11:54:00,26.5,15.3,30.11,WSW,238,4.0,14.0,62,0.00,,---,0.00,VWS V14.00,2013-03-14 15:54:00,
2013-03-14 11:59:00,26.9,16.7,30.11,West,269,4.0,14.0,65,0.00,,---,0.00,VWS V14.00,2013-03-14 15:59:00,
2013-03-14 12:04:00,26.4,16.6,30.11,WNW,298,4.0,16.0,66,0.00,,---,0.00,VWS V14.00,2013-03-14 16:04:00,
2013-03-14 12:09:00,26.4,15.9,30.11,WNW,292,6.0,16.0,64,0.00,,---,0.00,VWS V14.00,2013-03-14 16:09:00,
2013-03-14 12:14:00,26.3,16.1,30.11,West,277,6.0,17.0,65,0.00,,---,0.00,VWS V14.00,2013-03-14 16:14:00,
2013-03-14 12:19:00,26.4,16.6,30.11,NW,311,10.0,14.0,66,0.00,,---,0.00,VWS V14.00,2013-03-14 16:19:00,
2013-03-14 12:24:00,26.6,16.4,30.11,NW,306,8.0,14.0,65,0.00,,---,0.00,VWS V14.00,2013-03-14 16:24:00,
2013-03-14 12:29:00,26.9,16.7,30.11,West,273,7.0,14.0,65,0.00,,---,0.00,VWS V14.00,2013-03-14 16:29:00,
2013-03-14 12:34:00,27.0,16.8,30.11,NW,326,6.0,15.0,65,0.00,,---,0.00,VWS V14.00,2013-03-14 16:34:00,
2013-03-14 12:39:00,27.1,16.9,30.10,NNW,336,13.0,15.0,65,0.00,,---,0.00,VWS V14.00,2013-03-14 16:39:00,
2013-03-14 12:44:00,26.7,16.9,30.10,NNW,340,12.0,15.0,66,0.00,,---,0.00,VWS V14.00,2013-03-14 16:44:00,
2013-03-14 12:49:00,26.7,16.2,30.10,NW,322,9.0,19.0,64,0.00,,---,0.00,VWS V14.00,2013-03-14 16:49:00,
2013-03-14 12:54:00,26.8,16.6,30.10,NNW,344,9.0,19.0,65,0.00,,---,0.00,VWS V14.00,2013-03-14 16:54:00,
2013-03-14 12:59:00,27.0,17.2,30.10,NW,310,9.0,19.0,66,0.00,,---,0.00,VWS V14.00,2013-03-14 16:59:00,
2013-03-14 13:04:00,27.1,16.2,30.10,NW,311,9.0,14.0,63,0.00,,---,0.00,VWS V14.00,2013-03-14 17:04:00,
2013-03-14 13:09:00,27.2,17.0,30.10,NNW,332,7.0,14.0,65,0.00,,---,0.00,VWS V14.00,2013-03-14 17:09:00,
2013-03-14 13:14:00,27.0,16.1,30.10,NNW,334,9.0,18.0,63,0.00,,---,0.00,VWS V14.00,2013-03-14 17:14:00,
2013-03-14 13:19:00,27.3,16.4,30.10,West,281,7.0,12.0,63,0.00,,---,0.00,VWS V14.00,2013-03-14 17:19:00,
2013-03-14 13:24:00,27.8,17.2,30.10,NW,309,7.0,14.0,64,0.00,,---,0.00,VWS V14.00,2013-03-14 17:24:00,
2013-03-14 13:29:00,28.1,17.5,30.10,WNW,288,9.0,14.0,64,0.00,,---,0.00,VWS V14.00,2013-03-14 17:29:00,
2013-03-14 13:34:00,28.5,19.3,30.10,WNW,284,4.0,13.0,68,0.00,,---,0.00,VWS V14.00,2013-03-14 17:34:00,
2013-03-14 13:39:00,27.8,15.7,30.10,North,351,8.0,18.0,60,0.00,,---,0.00,VWS V14.00,2013-03-14 17:39:00,
2013-03-14 13:44:00,27.6,17.4,30.10,NNW,329,14.0,20.0,65,0.00,,---,0.00,VWS V14.00,2013-03-14 17:44:00,
2013-03-14 13:49:00,27.8,17.2,30.10,WNW,285,13.0,16.0,64,0.00,,---,0.00,VWS V14.00,2013-03-14 17:49:00,
2013-03-14 13:54:00,28.1,18.2,30.10,NW,317,10.0,16.0,66,0.00,,---,0.00,VWS V14.00,2013-03-14 17:54:00,
2013-03-14 13:59:00,27.8,17.2,30.10,NW,318,10.0,16.0,64,0.00,,---,0.00,VWS V14.00,2013-03-14 17:59:00,
2013-03-14 14:04:00,28.1,19.3,30.10,West,265,5.0,14.0,69,0.00,,---,0.00,VWS V14.00,2013-03-14 18:04:00,
2013-03-14 14:09:00,28.4,19.2,30.10,NW,313,8.0,18.0,68,0.00,,---,0.00,VWS V14.00,2013-03-14 18:09:00,
2013-03-14 14:14:00,28.4,19.2,30.09,WNW,286,4.0,18.0,68,0.00,,---,0.00,VWS V14.00,2013-03-14 18:14:00,
2013-03-14 14:19:00,28.0,18.5,30.09,WNW,290,9.0,16.0,67,0.00,,---,0.00,VWS V14.00,2013-03-14 18:19:00,
2013-03-14 14:24:00,27.9,18.7,30.09,WNW,288,11.0,16.0,68,0.00,,---,0.00,VWS V14.00,2013-03-14 18:24:00,
2013-03-14 14:29:00,27.6,18.4,30.09,NNW,330,6.0,16.0,68,0.00,,---,0.00,VWS V14.00,2013-03-14 18:29:00,
2013-03-14 14:34:00,27.4,17.9,30.09,NW,307,5.0,12.0,67,0.00,,---,0.00,VWS V14.00,2013-03-14 18:34:00,
2013-03-14 14:39:00,27.2,18.0,30.09,WNW,300,11.0,14.0,68,0.00,,---,0.00,VWS V14.00,2013-03-14 18:39:00,
2013-03-14 14:44:00,27.3,19.5,30.09,NW,309,13.0,14.0,72,0.00,,---,0.00,VWS V14.00,2013-03-14 18:44:00,
2013-03-14 14:49:00,27.2,18.7,30.09,NW,307,4.0,17.0,70,0.00,,---,0.00,VWS V14.00,2013-03-14 18:49:00,
2013-03-14 14:54:00,27.1,18.6,30.09,NNW,342,9.0,17.0,70,0.00,,---,0.00,VWS V14.00,2013-03-14 18:54:00,
2013-03-14 14:59:00,27.1,18.6,30.09,West,261,8.0,17.0,70,0.00,,---,0.00,VWS V14.00,2013-03-14 18:59:00,
2013-03-14 15:04:00,27.2,18.4,30.09,NNW,327,10.0,15.0,69,0.00,,---,0.00,VWS V14.00,2013-03-14 19:04:00,
2013-03-14 15:09:00,27.1,18.3,30.09,NW,311,11.0,15.0,69,0.00,,---,0.00,VWS V14.00,2013-03-14 19:09:00,
2013-03-14 15:14:00,27.6,19.4,30.09,NW,317,7.0,15.0,71,0.00,,---,0.00,VWS V14.00,2013-03-14 19:14:00,
2013-03-14 15:19:00,27.2,18.0,30.08,NNW,333,11.0,15.0,68,0.00,,---,0.00,VWS V14.00,2013-03-14 19:19:00,
2013-03-14 15:24:00,27.7,19.5,30.08,WSW,257,7.0,15.0,71,0.00,,---,0.00,VWS V14.00,2013-03-14 19:24:00,
2013-03-14 15:29:00,27.6,18.8,30.08,NW,315,10.0,15.0,69,0.00,,---,0.00,VWS V14.00,2013-03-14 19:29:00,
2013-03-14 15:34:00,27.7,18.5,30.08,WNW,289,8.0,13.0,68,0.00,,---,0.00,VWS V14.00,2013-03-14 19:34:00,
2013-03-14 15:39:00,27.9,19.1,30.08,WNW,298,4.0,13.0,69,0.00,,---,0.00,VWS V14.00,2013-03-14 19:39:00,
2013-03-14 15:44:00,28.3,19.5,30.08,WSW,257,6.0,6.0,69,0.00,,---,0.00,VWS V14.00,2013-03-14 19:44:00,
2013-03-14 15:49:00,29.1,19.5,30.08,West,264,4.0,16.0,67,0.00,,---,0.00,VWS V14.00,2013-03-14 19:49:00,
2013-03-14 15:54:00,29.6,20.7,30.08,West,272,6.0,16.0,69,0.00,,---,0.00,VWS V14.00,2013-03-14 19:54:00,
2013-03-14 15:59:00,29.9,20.6,30.08,WNW,292,9.0,10.0,68,0.00,,---,0.00,VWS V14.00,2013-03-14 19:59:00,
2013-03-14 16:04:00,29.3,19.4,30.08,WNW,292,7.0,12.0,66,0.00,,---,0.00,VWS V14.00,2013-03-14 20:04:00,
2013-03-14 16:09:00,28.4,18.5,30.07,WNW,285,4.0,15.0,66,0.00,,---,0.00,VWS V14.00,2013-03-14 20:09:00,
2013-03-14 16:14:00,28.4,19.2,30.07,NW,317,10.0,12.0,68,0.00,,---,0.00,VWS V14.00,2013-03-14 20:14:00,
2013-03-14 16:19:00,28.5,19.3,30.07,NNW,340,9.0,17.0,68,0.00,,---,0.00,VWS V14.00,2013-03-14 20:19:00,
2013-03-14 16:24:00,28.6,19.4,30.07,WNW,286,9.0,17.0,68,0.00,,---,0.00,VWS V14.00,2013-03-14 20:24:00,
2013-03-14 16:29:00,28.8,19.2,30.07,North,355,5.0,5.0,67,0.00,,---,0.00,VWS V14.00,2013-03-14 20:29:00,
2013-03-14 16:34:00,28.6,19.4,30.07,North,351,6.0,12.0,68,0.00,,---,0.00,VWS V14.00,2013-03-14 20:34:00,
2013-03-14 16:39:00,29.0,20.5,30.07,NW,314,10.0,14.0,70,0.00,,---,0.00,VWS V14.00,2013-03-14 20:39:00,
2013-03-14 16:44:00,29.0,20.1,30.07,West,272,8.0,10.0,69,0.00,,---,0.00,VWS V14.00,2013-03-14 20:44:00,
2013-03-14 16:49:00,29.3,19.7,30.07,NW,319,4.0,16.0,67,0.00,,---,0.00,VWS V14.00,2013-03-14 20:49:00,
2013-03-14 16:54:00,29.3,19.7,30.07,NW,304,5.0,16.0,67,0.00,,---,0.00,VWS V14.00,2013-03-14 20:54:00,
2013-03-14 16:59:00,28.9,19.3,30.07,NW,319,5.0,7.0,67,0.00,,---,0.00,VWS V14.00,2013-03-14 20:59:00,
2013-03-14 17:04:00,28.6,19.0,30.07,NNW,329,7.0,13.0,67,0.00,,---,0.00,VWS V14.00,2013-03-14 21:04:00,
2013-03-14 17:09:00,28.5,19.3,30.07,NNW,344,11.0,13.0,68,0.00,,---,0.00,VWS V14.00,2013-03-14 21:09:00,
2013-03-14 17:14:00,29.0,19.1,30.07,NNW,342,7.0,10.0,66,0.00,,---,0.00,VWS V14.00,2013-03-14 21:14:00,
2013-03-14 17:19:00,29.3,20.4,30.07,WNW,289,7.0,14.0,69,0.00,,---,0.00,VWS V14.00,2013-03-14 21:19:00,
2013-03-14 17:24:00,29.7,19.8,30.07,West,266,5.0,18.0,66,0.00,,---,0.00,VWS V14.00,2013-03-14 21:24:00,
2013-03-14 17:29:00,30.0,20.0,30.07,WNW,292,6.0,6.0,66,0.00,,---,0.00,VWS V14.00,2013-03-14 21:29:00,
2013-03-14 17:34:00,30.1,19.8,30.07,West,275,5.0,14.0,65,0.00,,---,0.00,VWS V14.00,2013-03-14 21:34:00,
2013-03-14 17:39:00,30.5,20.9,30.07,NW,308,6.0,14.0,67,0.00,,---,0.00,VWS V14.00,2013-03-14 21:39:00,
2013-03-14 17:44:00,30.5,20.5,30.07,WSW,252,4.0,6.0,66,0.00,,---,0.00,VWS V14.00,2013-03-14 21:44:00,
2013-03-14 17:49:00,29.6,18.9,30.07,WNW,292,5.0,14.0,64,0.00,,---,0.00,VWS V14.00,2013-03-14 21:49:00,
2013-03-14 17:54:00,29.0,19.4,30.07,WNW,296,3.0,14.0,67,0.00,,---,0.00,VWS V14.00,2013-03-14 21:54:00,
2013-03-14 17:59:00,28.9,19.0,30.07,WNW,292,5.0,6.0,66,0.00,,---,0.00,VWS V14.00,2013-03-14 21:59:00,
2013-03-14 18:04:00,28.5,19.0,30.07,NW,310,7.0,13.0,67,0.00,,---,0.00,VWS V14.00,2013-03-14 22:04:00,
2013-03-14 18:09:00,28.4,19.2,30.08,West,280,4.0,13.0,68,0.00,,---,0.00,VWS V14.00,2013-03-14 22:09:00,
2013-03-14 18:14:00,28.4,18.9,30.07,WNW,288,5.0,6.0,67,0.00,,---,0.00,VWS V14.00,2013-03-14 22:14:00,
2013-03-14 18:19:00,28.4,19.5,30.07,NW,309,4.0,9.0,69,0.00,,---,0.00,VWS V14.00,2013-03-14 22:19:00,
2013-03-14 18:25:00,28.3,18.8,30.07,NW,309,10.0,11.0,67,0.00,,---,0.00,VWS V14.00,2013-03-14 22:25:00,
2013-03-14 18:30:00,28.3,19.5,30.07,WNW,288,4.0,5.0,69,0.00,,---,0.00,VWS V14.00,2013-03-14 22:30:00,
2013-03-14 18:35:00,28.5,19.3,30.07,NNW,335,5.0,13.0,68,0.00,,---,0.00,VWS V14.00,2013-03-14 22:35:00,
2013-03-14 18:40:00,28.5,19.6,30.07,NW,311,4.0,13.0,69,0.00,,---,0.00,VWS V14.00,2013-03-14 22:40:00,
2013-03-14 18:45:00,28.4,18.9,30.07,WNW,294,8.0,8.0,67,0.00,,---,0.00,VWS V14.00,2013-03-14 22:45:00,
2013-03-14 18:50:00,28.5,19.3,30.07,WNW,296,7.0,11.0,68,0.00,,---,0.00,VWS V14.00,2013-03-14 22:50:00,
2013-03-14 18:55:00,28.5,19.6,30.07,WNW,284,3.0,11.0,69,0.00,,---,0.00,VWS V14.00,2013-03-14 22:55:00,
2013-03-14 19:00:00,28.4,19.2,30.07,WNW,294,4.0,5.0,68,0.00,,---,0.00,VWS V14.00,2013-03-14 23:00:00,
2013-03-14 19:05:00,28.4,19.5,30.07,NNW,342,8.0,9.0,69,0.00,,---,0.00,VWS V14.00,2013-03-14 23:05:00,
2013-03-14 19:10:00,28.3,19.5,30.07,NNW,335,8.0,10.0,69,0.00,,---,0.00,VWS V14.00,2013-03-14 23:10:00,
2013-03-14 19:15:00,28.2,19.4,30.07,WNW,285,3.0,4.0,69,0.00,,---,0.00,VWS V14.00,2013-03-14 23:15:00,
2013-03-14 19:20:00,28.0,19.2,30.07,West,277,4.0,8.0,69,0.00,,---,0.00,VWS V14.00,2013-03-14 23:20:00,
2013-03-14 19:25:00,27.9,19.1,30.07,West,281,4.0,9.0,69,0.00,,---,0.00,VWS V14.00,2013-03-14 23:25:00,
2013-03-14 19:30:00,27.9,19.4,30.07,West,279,2.0,7.0,70,0.00,,---,0.00,VWS V14.00,2013-03-14 23:30:00,
2013-03-14 19:35:00,27.8,19.3,30.07,NW,309,3.0,7.0,70,0.00,,---,0.00,VWS V14.00,2013-03-14 23:35:00,
2013-03-14 19:40:00,27.6,19.1,30.07,WNW,288,3.0,7.0,70,0.00,,---,0.00,VWS V14.00,2013-03-14 23:40:00,
2013-03-14 19:45:00,27.6,19.1,30.07,WNW,298,3.0,3.0,70,0.00,,---,0.00,VWS V14.00,2013-03-14 23:45:00,
2013-03-14 19:50:00,27.5,19.4,30.07,WNW,290,0.0,4.0,71,0.00,,---,0.00,VWS V14.00,2013-03-14 23:50:00,
2013-03-14 19:55:00,27.4,19.2,30.07,WNW,289,0.0,4.0,71,0.00,,---,0.00,VWS V14.00,2013-03-14 23:55:00,
2013-03-14 20:00:00,27.3,19.1,30.07,WNW,283,0.0,0.0,71,0.00,,---,0.00,VWS V14.00,2013-03-15 00:00:00,
2013-03-14 20:05:00,27.2,19.1,30.06,WNW,288,0.0,2.0,71,0.00,,---,0.00,VWS V14.00,2013-03-15 00:05:00,
2013-03-14 20:10:00,27.2,19.1,30.06,WNW,288,0.0,2.0,71,0.00,,---,0.00,VWS V14.00,2013-03-15 00:10:00,
2013-03-14 20:15:00,27.0,18.9,30.06,WNW,288,0.0,0.0,71,0.00,,---,0.00,VWS V14.00,2013-03-15 00:15:00,
2013-03-14 20:20:00,26.9,19.1,30.06,WNW,288,0.0,0.0,72,0.00,,---,0.00,VWS V14.00,2013-03-15 00:20:00,
2013-03-14 20:25:00,26.7,18.9,30.06,WNW,288,1.0,1.0,72,0.00,,---,0.00,VWS V14.00,2013-03-15 00:25:00,
2013-03-14 20:30:00,26.7,18.9,30.06,WNW,288,0.0,0.0,72,0.00,,---,0.00,VWS V14.00,2013-03-15 00:30:00,
2013-03-14 20:35:00,26.7,18.9,30.06,WNW,288,0.0,2.0,72,0.00,,---,0.00,VWS V14.00,2013-03-15 00:35:00,
2013-03-14 20:40:00,26.6,18.8,30.06,WNW,288,0.0,2.0,72,0.00,,---,0.00,VWS V14.00,2013-03-15 00:40:00,
2013-03-14 20:45:00,26.5,18.7,30.06,WNW,288,0.0,0.0,72,0.00,,---,0.00,VWS V14.00,2013-03-15 00:45:00,
2013-03-14 20:50:00,26.3,18.8,30.06,WNW,288,0.0,0.0,73,0.00,,---,0.00,VWS V14.00,2013-03-15 00:50:00,
2013-03-14 20:55:00,26.1,18.6,30.06,WNW,288,0.0,0.0,73,0.00,,---,0.00,VWS V14.00,2013-03-15 00:55:00,
2013-03-14 21:00:00,26.0,18.5,30.06,WNW,288,0.0,0.0,73,0.00,,---,0.00,VWS V14.00,2013-03-15 01:00:00,
2013-03-14 21:05:00,25.8,18.4,30.06,WNW,288,0.0,0.0,73,0.00,,---,0.00,VWS V14.00,2013-03-15 01:05:00,
2013-03-14 21:10:00,25.7,18.6,30.05,WNW,288,0.0,0.0,74,0.00,,---,0.00,VWS V14.00,2013-03-15 01:10:00,
2013-03-14 21:15:00,25.6,18.5,30.05,WNW,288,0.0,0.0,74,0.00,,---,0.00,VWS V14.00,2013-03-15 01:15:00,
2013-03-14 21:20:00,25.7,18.9,30.05,WNW,288,0.0,0.0,75,0.00,,---,0.00,VWS V14.00,2013-03-15 01:20:00,
2013-03-14 21:25:00,25.7,18.9,30.05,WNW,288,1.0,1.0,75,0.00,,---,0.00,VWS V14.00,2013-03-15 01:25:00,
2013-03-14 21:30:00,25.6,18.8,30.05,WNW,288,0.0,0.0,75,0.00,,---,0.00,VWS V14.00,2013-03-15 01:30:00,
2013-03-14 21:35:00,25.6,19.1,30.05,WNW,288,0.0,2.0,76,0.00,,---,0.00,VWS V14.00,2013-03-15 01:35:00,
2013-03-14 21:40:00,25.5,19.0,30.05,WNW,288,0.0,2.0,76,0.00,,---,0.00,VWS V14.00,2013-03-15 01:40:00,
2013-03-14 21:45:00,25.4,18.9,30.05,WNW,288,0.0,0.0,76,0.00,,---,0.00,VWS V14.00,2013-03-15 01:45:00,
2013-03-14 21:50:00,25.2,18.7,30.06,WNW,288,0.0,0.0,76,0.00,,---,0.00,VWS V14.00,2013-03-15 01:50:00,
2013-03-14 21:55:00,24.9,18.4,30.05,WNW,288,0.0,1.0,76,0.00,,---,0.00,VWS V14.00,2013-03-15 01:55:00,
2013-03-14 22:00:00,24.6,18.4,30.05,WNW,288,0.0,1.0,77,0.00,,---,0.00,VWS V14.00,2013-03-15 02:00:00,
2013-03-14 22:05:00,24.6,18.4,30.05,WNW,288,0.0,1.0,77,0.00,,---,0.00,VWS V14.00,2013-03-15 02:05:00,
2013-03-14 22:10:00,24.7,18.8,30.05,WNW,288,0.0,1.0,78,0.00,,---,0.00,VWS V14.00,2013-03-15 02:10:00,
2013-03-14 22:15:00,24.7,18.8,30.05,SSE,151,0.0,1.0,78,0.00,,---,0.00,VWS V14.00,2013-03-15 02:15:00,
2013-03-14 22:20:00,24.7,18.8,30.05,SSE,150,0.0,1.0,78,0.00,,---,0.00,VWS V14.00,2013-03-15 02:20:00,
2013-03-14 22:25:00,24.6,19.0,30.05,SSE,150,0.0,1.0,79,0.00,,---,0.00,VWS V14.00,2013-03-15 02:25:00,
2013-03-14 22:30:00,24.5,18.9,30.05,SSE,150,0.0,0.0,79,0.00,,---,0.00,VWS V14.00,2013-03-15 02:30:00,
2013-03-14 22:35:00,24.4,18.8,30.05,SSE,150,0.0,0.0,79,0.00,,---,0.00,VWS V14.00,2013-03-15 02:35:00,
2013-03-14 22:40:00,24.3,19.0,30.05,SSE,150,0.0,0.0,80,0.00,,---,0.00,VWS V14.00,2013-03-15 02:40:00,
2013-03-14 22:45:00,23.9,18.9,30.04,SSE,150,0.0,1.0,81,0.00,,---,0.00,VWS V14.00,2013-03-15 02:45:00,
2013-03-14 22:50:00,23.8,18.8,30.04,SSE,150,1.0,1.0,81,0.00,,---,0.00,VWS V14.00,2013-03-15 02:50:00,
2013-03-14 22:55:00,23.7,18.7,30.04,SSE,150,0.0,1.0,81,0.00,,---,0.00,VWS V14.00,2013-03-15 02:55:00,
2013-03-14 23:00:00,23.4,18.4,30.04,SSE,150,0.0,0.0,81,0.00,,---,0.00,VWS V14.00,2013-03-15 03:00:00,
2013-03-14 23:05:00,23.0,18.3,30.04,SSE,150,0.0,0.0,82,0.00,,---,0.00,VWS V14.00,2013-03-15 03:05:00,
2013-03-14 23:10:00,22.7,18.3,30.03,SSE,150,0.0,0.0,83,0.00,,---,0.00,VWS V14.00,2013-03-15 03:10:00,
2013-03-14 23:15:00,22.4,18.0,30.02,SSE,150,0.0,0.0,83,0.00,,---,0.00,VWS V14.00,2013-03-15 03:15:00,
2013-03-14 23:20:00,22.2,18.1,30.02,SSE,150,0.0,0.0,84,0.00,,---,0.00,VWS V14.00,2013-03-15 03:20:00,
2013-03-14 23:25:00,22.2,18.1,30.02,SSE,150,0.0,0.0,84,0.00,,---,0.00,VWS V14.00,2013-03-15 03:25:00,
2013-03-14 23:30:00,22.1,18.3,30.03,SSE,150,0.0,0.0,85,0.00,,---,0.00,VWS V14.00,2013-03-15 03:30:00,
2013-03-14 23:35:00,21.8,18.0,30.03,SSE,150,0.0,0.0,85,0.00,,---,0.00,VWS V14.00,2013-03-15 03:35:00,
2013-03-14 23:40:00,21.7,18.2,30.02,SSE,150,0.0,0.0,86,0.00,,---,0.00,VWS V14.00,2013-03-15 03:40:00,
2013-03-14 23:45:00,21.6,18.1,30.02,SSE,150,0.0,0.0,86,0.00,,---,0.00,VWS V14.00,2013-03-15 03:45:00,
2013-03-14 23:50:00,21.4,17.9,30.02,SSE,150,0.0,0.0,86,0.00,,---,0.00,VWS V14.00,2013-03-15 03:50:00,
2013-03-14 23:55:00,21.5,18.2,30.02,SSE,150,0.0,0.0,87,0.00,,---,0.00,VWS V14.00,2013-03-15 03:55:00,